Terminal Aerodrome Forecast
Issued by NWS Cleveland, OH

Home | Current Version | Previous Version | Text Only | Print | Product List | Glossary On
Versions: 1 2 3 4 5 6 7 8 9 10 11 12 13 14 15 16 17
256
FTUS41 KCLE 290540
TAFTOL
TAF
KTOL 290540Z 2906/3006 04005KT P6SM VCSH SCT060 BKN100
     FM290800 05005KT P6SM BKN070 OVC100
     FM291900 07006KT P6SM VCTS BKN045CB
     FM292300 06004KT P6SM SCT050 BKN100=

USA.gov is the U.S. government's official web portal to all federal, state and local government web resources and services.